createdAt,value
2019-02-25T00:00:33.018Z,35.99
2019-02-25T00:01:33.044Z,36.11
2019-02-25T00:02:32.994Z,35.91
2019-02-25T00:03:33.037Z,35.80
2019-02-25T00:04:32.972Z,35.39
2019-02-25T00:05:32.962Z,35.99
2019-02-25T00:06:32.953Z,35.80
2019-02-25T00:07:32.948Z,35.81
2019-02-25T00:08:32.930Z,35.69
2019-02-25T00:09:32.944Z,35.69
2019-02-25T00:10:32.911Z,35.69
2019-02-25T00:11:32.908Z,35.69
2019-02-25T00:12:32.894Z,36.01
2019-02-25T00:13:32.880Z,35.81
2019-02-25T00:14:32.938Z,35.80
2019-02-25T00:15:32.869Z,35.89
2019-02-25T00:16:32.843Z,35.99
2019-02-25T00:17:32.833Z,35.61
2019-02-25T00:18:32.820Z,35.71
2019-02-25T00:19:32.812Z,35.89
2019-02-25T00:20:32.828Z,35.71
2019-02-25T00:21:32.799Z,35.80
2019-02-25T00:22:32.782Z,35.81
2019-02-25T00:23:32.769Z,35.91
2019-02-25T00:24:32.756Z,35.80
2019-02-25T00:25:32.777Z,35.99
2019-02-25T00:26:32.739Z,36.31
2019-02-25T00:27:32.724Z,35.81
2019-02-25T00:28:32.714Z,35.60
2019-02-25T00:29:32.715Z,35.71
2019-02-25T00:30:32.723Z,36.11
2019-02-25T00:31:32.695Z,36.29
2019-02-25T00:32:32.668Z,35.80
2019-02-25T00:33:32.661Z,35.91
2019-02-25T00:34:32.652Z,35.91
2019-02-25T00:35:32.670Z,35.89
2019-02-25T00:36:32.665Z,35.69
2019-02-25T00:37:32.622Z,36.31
2019-02-25T00:38:32.623Z,35.61
2019-02-25T00:39:32.595Z,36.01
2019-02-25T00:40:32.665Z,36.29
2019-02-25T00:41:32.576Z,35.81
2019-02-25T00:42:32.567Z,35.61
2019-02-25T00:43:32.563Z,35.60
2019-02-25T00:44:32.564Z,36.21
2019-02-25T00:45:32.537Z,35.89
2019-02-25T00:46:32.560Z,35.61
2019-02-25T00:47:32.514Z,35.81
2019-02-25T00:48:32.503Z,35.69
2019-02-25T00:49:32.489Z,35.80
2019-02-25T00:50:32.482Z,35.99
2019-02-25T00:51:32.494Z,35.69
2019-02-25T00:52:32.502Z,36.11
2019-02-25T00:53:32.448Z,36.19
2019-02-25T00:54:32.440Z,35.80
2019-02-25T00:55:32.426Z,35.91
2019-02-25T00:56:32.495Z,35.99
2019-02-25T00:57:32.419Z,35.71
2019-02-25T00:58:32.402Z,35.39
2019-02-25T00:59:32.394Z,35.71
2019-02-25T01:00:32.408Z,35.61
2019-02-25T01:01:32.406Z,36.11
2019-02-25T01:02:32.363Z,35.91
2019-02-25T01:03:32.349Z,36.29
2019-02-25T01:04:32.331Z,35.91
2019-02-25T01:05:32.331Z,36.19
2019-02-25T01:06:32.337Z,35.71
2019-02-25T01:07:32.326Z,36.21
2019-02-25T01:08:32.309Z,36.01
2019-02-25T01:09:32.279Z,35.69
2019-02-25T01:10:32.285Z,35.69
2019-02-25T01:11:32.285Z,36.10
2019-02-25T01:12:32.251Z,35.69
2019-02-25T01:13:32.244Z,35.80
2019-02-25T01:14:32.231Z,35.89
2019-02-25T01:15:32.232Z,36.19
2019-02-25T01:16:32.234Z,35.69
2019-02-25T01:17:32.218Z,35.61
2019-02-25T01:18:32.187Z,36.10
2019-02-25T01:19:32.224Z,35.91
2019-02-25T01:20:32.164Z,35.69
2019-02-25T01:21:32.180Z,35.69
2019-02-25T01:22:32.152Z,36.49
2019-02-25T01:23:32.135Z,36.40
2019-02-25T01:24:32.125Z,35.69
2019-02-25T01:25:32.109Z,36.51
2019-02-25T01:26:32.152Z,35.81
2019-02-25T01:27:32.092Z,35.89
2019-02-25T01:28:32.081Z,35.89
2019-02-25T01:29:32.098Z,36.29
2019-02-25T01:30:32.060Z,35.99
2019-02-25T01:31:32.085Z,35.99
2019-02-25T01:32:32.033Z,36.11
2019-02-25T01:33:32.027Z,35.69
2019-02-25T01:34:32.018Z,36.10
2019-02-25T01:35:32.009Z,35.80
2019-02-25T01:36:32.008Z,35.89
2019-02-25T01:37:32.028Z,35.81
2019-02-25T01:38:31.977Z,35.81
2019-02-25T01:39:31.959Z,35.89
2019-02-25T01:40:31.972Z,35.89
2019-02-25T01:41:31.947Z,35.89
2019-02-25T01:42:32.014Z,35.81
2019-02-25T01:43:31.936Z,35.89
2019-02-25T01:44:31.915Z,35.69
2019-02-25T01:45:31.897Z,35.60
2019-02-25T01:46:31.904Z,36.11
2019-02-25T01:47:31.878Z,35.69
2019-02-25T01:48:31.897Z,35.71
2019-02-25T01:49:31.865Z,35.81
2019-02-25T01:50:31.846Z,35.49
2019-02-25T01:51:31.846Z,35.69
2019-02-25T01:52:31.835Z,35.49
2019-02-25T01:53:31.950Z,35.49
2019-02-25T01:54:31.804Z,35.49
2019-02-25T01:55:31.792Z,35.89
2019-02-25T01:56:31.781Z,35.19
2019-02-25T01:57:31.769Z,35.69
2019-02-25T01:58:31.787Z,35.89
2019-02-25T01:59:31.755Z,35.91
2019-02-25T02:00:31.741Z,35.60
2019-02-25T02:01:31.727Z,35.80
2019-02-25T02:02:31.720Z,36.10
2019-02-25T02:03:31.732Z,35.91
2019-02-25T02:04:31.698Z,35.61
2019-02-25T02:05:31.698Z,35.71
2019-02-25T02:06:31.678Z,35.69
2019-02-25T02:07:31.692Z,35.91
2019-02-25T02:08:31.674Z,35.61
2019-02-25T02:09:31.645Z,35.41
2019-02-25T02:10:31.635Z,35.69
2019-02-25T02:11:31.624Z,36.10
2019-02-25T02:12:32.270Z,35.61
2019-02-25T02:13:31.635Z,35.91
2019-02-25T02:14:31.589Z,35.61
2019-02-25T02:15:31.583Z,36.21
2019-02-25T02:16:31.590Z,36.21
2019-02-25T02:17:31.560Z,35.80
2019-02-25T02:18:31.586Z,35.81
2019-02-25T02:19:31.537Z,35.71
2019-02-25T02:20:31.546Z,35.89
2019-02-25T02:21:31.519Z,35.60
2019-02-25T02:22:31.507Z,36.19
2019-02-25T02:23:31.495Z,35.41
2019-02-25T02:24:31.510Z,35.91
2019-02-25T02:25:31.476Z,34.71
2019-02-25T02:26:31.472Z,35.60
2019-02-25T02:27:31.486Z,35.41
2019-02-25T02:28:31.441Z,35.60
2019-02-25T02:29:31.494Z,34.99
2019-02-25T02:30:31.431Z,35.60
2019-02-25T02:31:31.411Z,34.80
2019-02-25T02:32:31.407Z,36.21
2019-02-25T02:33:31.400Z,35.51
2019-02-25T02:34:31.378Z,35.99
2019-02-25T02:35:31.393Z,35.60
2019-02-25T02:36:31.361Z,34.99
2019-02-25T02:37:31.346Z,35.39
2019-02-25T02:38:31.335Z,35.39
2019-02-25T02:39:31.334Z,35.61
2019-02-25T02:40:31.341Z,36.10
2019-02-25T02:41:31.326Z,35.49
2019-02-25T02:42:31.306Z,35.30
2019-02-25T02:43:31.295Z,35.60
2019-02-25T02:44:31.295Z,35.69
2019-02-25T02:45:31.283Z,35.69
2019-02-25T02:46:31.257Z,35.39
2019-02-25T02:47:31.236Z,34.71
2019-02-25T02:48:31.241Z,35.01
2019-02-25T02:49:31.216Z,35.60
2019-02-25T02:50:31.230Z,35.80
2019-02-25T02:51:31.207Z,35.99
2019-02-25T02:52:31.217Z,34.71
2019-02-25T02:53:31.184Z,36.21
2019-02-25T02:54:31.167Z,35.41
2019-02-25T02:55:31.181Z,35.61
2019-02-25T02:56:31.141Z,34.81
2019-02-25T02:57:31.133Z,35.99
2019-02-25T02:58:31.124Z,36.21
2019-02-25T02:59:31.117Z,34.69
2019-02-25T03:00:31.195Z,36.10
2019-02-25T03:01:31.129Z,35.60
2019-02-25T03:02:31.079Z,35.41
2019-02-25T03:03:31.078Z,34.69
2019-02-25T03:04:31.064Z,35.41
2019-02-25T03:05:31.082Z,34.71
2019-02-25T03:06:31.042Z,36.10
2019-02-25T03:07:31.024Z,35.10
2019-02-25T03:08:31.027Z,35.39
2019-02-25T03:09:31.007Z,36.01
2019-02-25T03:10:30.995Z,35.11
2019-02-25T03:11:31.013Z,35.39
2019-02-25T03:12:30.982Z,35.99
2019-02-25T03:13:30.965Z,36.31
2019-02-25T03:14:30.960Z,35.89
2019-02-25T03:15:30.952Z,34.71
2019-02-25T03:16:30.962Z,34.89
2019-02-25T03:17:30.920Z,34.99
2019-02-25T03:18:30.933Z,35.31
2019-02-25T03:19:30.897Z,35.01
2019-02-25T03:20:30.897Z,34.99
2019-02-25T03:21:30.900Z,36.01
2019-02-25T03:22:30.882Z,35.01
2019-02-25T03:23:30.864Z,36.31
2019-02-25T03:24:30.865Z,35.69
2019-02-25T03:25:30.838Z,36.21
2019-02-25T03:26:30.849Z,35.60
2019-02-25T03:27:30.825Z,35.19
2019-02-25T03:28:30.804Z,34.99
2019-02-25T03:29:30.800Z,34.69
2019-02-25T03:30:30.809Z,35.01
2019-02-25T03:31:30.799Z,34.91
2019-02-25T03:32:30.808Z,35.91
2019-02-25T03:33:30.755Z,34.59
2019-02-25T03:34:30.740Z,34.99
2019-02-25T03:35:30.739Z,36.10
2019-02-25T03:36:30.751Z,36.40
2019-02-25T03:37:30.714Z,35.80
2019-02-25T03:38:30.699Z,34.99
2019-02-25T03:39:30.686Z,35.10
2019-02-25T03:40:30.692Z,35.61
2019-02-25T03:41:30.672Z,35.81
2019-02-25T03:42:30.688Z,35.60
2019-02-25T03:43:30.657Z,35.61
2019-02-25T03:44:30.649Z,35.01
2019-02-25T03:45:30.675Z,35.49
2019-02-25T03:46:30.630Z,34.99
2019-02-25T03:47:30.625Z,36.31
2019-02-25T03:48:30.590Z,36.19
2019-02-25T03:49:30.618Z,35.99
2019-02-25T03:50:30.577Z,36.31
2019-02-25T03:51:30.560Z,36.19
2019-02-25T03:52:30.581Z,35.30
2019-02-25T03:53:30.539Z,35.19
2019-02-25T03:54:30.529Z,36.11
2019-02-25T03:55:30.524Z,35.71
2019-02-25T03:56:30.507Z,35.61
2019-02-25T03:57:30.498Z,35.10
2019-02-25T03:58:30.534Z,35.99
2019-02-25T03:59:30.479Z,36.10
2019-02-25T04:00:30.465Z,35.39
2019-02-25T04:01:30.452Z,36.10
2019-02-25T04:02:30.443Z,35.89
2019-02-25T04:03:30.471Z,36.21
2019-02-25T04:04:30.429Z,36.19
2019-02-25T04:05:30.410Z,35.99
2019-02-25T04:06:30.404Z,34.71
2019-02-25T04:07:30.416Z,34.99
2019-02-25T04:08:30.510Z,36.10
2019-02-25T04:09:30.368Z,35.99
2019-02-25T04:10:30.365Z,36.10
2019-02-25T04:11:30.350Z,36.41
2019-02-25T04:12:30.347Z,36.10
2019-02-25T04:13:30.350Z,35.39
2019-02-25T04:14:30.329Z,35.51
2019-02-25T04:15:30.319Z,34.69
2019-02-25T04:16:30.298Z,36.29
2019-02-25T04:17:30.286Z,36.19
2019-02-25T04:18:30.291Z,35.11
2019-02-25T04:19:30.278Z,35.89
2019-02-25T04:20:30.259Z,36.01
2019-02-25T04:21:30.239Z,35.30
2019-02-25T04:22:30.234Z,35.99
2019-02-25T04:23:30.255Z,35.91
2019-02-25T04:24:30.228Z,35.30
2019-02-25T04:25:30.209Z,35.10
2019-02-25T04:26:30.189Z,35.19
2019-02-25T04:27:30.175Z,35.91
2019-02-25T04:28:30.167Z,35.89
2019-02-25T04:29:30.183Z,35.91
2019-02-25T04:30:30.166Z,35.81
2019-02-25T04:31:30.137Z,35.01
2019-02-25T04:32:30.131Z,35.39
2019-02-25T04:33:30.129Z,34.99
2019-02-25T04:34:30.143Z,35.41
2019-02-25T04:35:30.092Z,35.01
2019-02-25T04:36:30.084Z,35.31
2019-02-25T04:37:30.072Z,35.31
2019-02-25T04:38:30.082Z,35.10
2019-02-25T04:39:30.059Z,35.81
2019-02-25T04:40:30.078Z,34.99
2019-02-25T04:41:30.041Z,35.21
2019-02-25T04:42:30.024Z,36.01
2019-02-25T04:43:30.011Z,36.11
2019-02-25T04:44:30.002Z,35.81
2019-02-25T04:45:30.011Z,35.81
2019-02-25T04:46:29.981Z,36.10
2019-02-25T04:47:29.972Z,36.11
2019-02-25T04:48:29.954Z,35.80
2019-02-25T04:49:29.953Z,35.80
2019-02-25T04:50:29.957Z,35.19
2019-02-25T04:51:29.943Z,35.10
2019-02-25T04:52:29.922Z,36.10
2019-02-25T04:53:29.928Z,36.29
2019-02-25T04:54:29.893Z,35.80
2019-02-25T04:55:29.905Z,36.10
2019-02-25T04:56:29.871Z,36.01
2019-02-25T04:57:29.866Z,35.01
2019-02-25T04:58:29.850Z,35.80
2019-02-25T04:59:29.842Z,36.10
2019-02-25T05:00:29.859Z,35.99
2019-02-25T05:01:29.863Z,36.11
2019-02-25T05:02:29.811Z,36.11
2019-02-25T05:03:29.800Z,35.39
2019-02-25T05:04:29.785Z,36.10
2019-02-25T05:05:29.810Z,36.29
2019-02-25T05:06:29.771Z,36.10
2019-02-25T05:07:29.762Z,36.10
2019-02-25T05:08:29.757Z,35.19
2019-02-25T05:09:29.743Z,35.21
2019-02-25T05:10:29.723Z,35.19
2019-02-25T05:11:29.762Z,34.91
2019-02-25T05:12:29.704Z,34.91
2019-02-25T05:13:29.725Z,36.31
2019-02-25T05:14:29.686Z,35.10
2019-02-25T05:15:29.673Z,36.29
2019-02-25T05:16:29.659Z,34.89
2019-02-25T05:17:29.686Z,34.89
2019-02-25T05:18:29.637Z,35.89
2019-02-25T05:19:29.635Z,36.01
2019-02-25T05:20:29.622Z,35.10
2019-02-25T05:21:29.607Z,35.91
2019-02-25T05:22:29.626Z,36.01
2019-02-25T05:23:29.594Z,35.31
2019-02-25T05:24:29.576Z,36.29
2019-02-25T05:25:29.571Z,35.11
2019-02-25T05:26:29.596Z,35.19
2019-02-25T05:27:29.570Z,35.11
2019-02-25T05:28:29.531Z,35.19
2019-02-25T05:29:29.522Z,35.99
2019-02-25T05:30:29.513Z,36.10
2019-02-25T05:31:29.503Z,34.91
2019-02-25T05:32:29.510Z,35.39
2019-02-25T05:33:29.480Z,35.41
2019-02-25T05:34:29.491Z,36.29
2019-02-25T05:35:29.463Z,34.89
2019-02-25T05:36:29.451Z,36.19
2019-02-25T05:37:29.489Z,34.89
2019-02-25T05:38:29.439Z,36.01
2019-02-25T05:39:29.424Z,36.21
2019-02-25T05:40:29.426Z,36.19
2019-02-25T05:41:29.399Z,35.41
2019-02-25T05:42:29.400Z,34.89
2019-02-25T05:43:29.401Z,35.81
2019-02-25T05:44:29.367Z,35.11
2019-02-25T05:45:29.364Z,35.39
2019-02-25T05:46:29.364Z,35.01
2019-02-25T05:47:29.336Z,35.21
2019-02-25T05:48:29.337Z,35.21
2019-02-25T05:49:29.312Z,35.21
2019-02-25T05:50:29.299Z,35.39
2019-02-25T05:51:29.287Z,35.60
2019-02-25T05:52:29.282Z,35.49
2019-02-25T05:53:29.298Z,35.10
2019-02-25T05:54:29.270Z,35.39
2019-02-25T05:55:29.257Z,35.11
2019-02-25T05:56:29.236Z,35.19
2019-02-25T05:57:29.229Z,34.89
2019-02-25T05:58:29.211Z,35.30
2019-02-25T05:59:29.254Z,35.30
2019-02-25T06:00:29.198Z,35.30
2019-02-25T06:01:29.187Z,35.30
2019-02-25T06:02:29.179Z,36.10
2019-02-25T06:03:29.175Z,35.10
2019-02-25T06:04:29.174Z,34.89
2019-02-25T06:05:29.143Z,35.60
2019-02-25T06:06:29.139Z,34.89
2019-02-25T06:07:29.123Z,36.31
2019-02-25T06:08:29.103Z,36.01
2019-02-25T06:09:29.144Z,35.51
2019-02-25T06:10:29.085Z,35.10
2019-02-25T06:11:29.075Z,35.10
2019-02-25T06:12:29.067Z,35.51
2019-02-25T06:13:29.057Z,35.39
2019-02-25T06:14:29.043Z,35.41
2019-02-25T06:15:29.063Z,35.39
2019-02-25T06:16:29.038Z,35.49
2019-02-25T06:17:29.010Z,35.51
2019-02-25T06:18:28.997Z,34.89
2019-02-25T06:19:29.002Z,35.21
2019-02-25T06:20:29.006Z,35.51
2019-02-25T06:21:28.973Z,35.10
2019-02-25T06:22:28.961Z,35.51
2019-02-25T06:23:28.959Z,34.91
2019-02-25T06:24:28.993Z,35.80
2019-02-25T06:25:28.962Z,35.31
2019-02-25T06:26:28.914Z,35.10
2019-02-25T06:27:30.927Z,34.89
2019-02-25T06:28:28.906Z,35.41
2019-02-25T06:29:28.888Z,35.31
2019-02-25T06:30:28.901Z,35.39
2019-02-25T06:31:28.865Z,35.10
2019-02-25T06:32:28.848Z,35.41
2019-02-25T06:33:28.840Z,35.31
2019-02-25T06:34:28.865Z,35.01
2019-02-25T06:35:28.839Z,35.41
2019-02-25T06:36:28.807Z,35.41
2019-02-25T06:37:28.803Z,35.31
2019-02-25T06:38:28.788Z,36.21
2019-02-25T06:39:28.776Z,35.01
2019-02-25T06:40:28.802Z,36.29
2019-02-25T06:41:28.759Z,35.61
2019-02-25T06:42:28.739Z,35.31
2019-02-25T06:43:28.736Z,35.51
2019-02-25T06:44:28.725Z,35.11
2019-02-25T06:45:28.706Z,34.91
2019-02-25T06:46:28.732Z,35.31
2019-02-25T06:47:28.696Z,35.61
2019-02-25T06:48:28.671Z,35.30
2019-02-25T06:49:28.668Z,35.60
2019-02-25T06:50:28.655Z,35.39
2019-02-25T06:51:28.685Z,34.51
2019-02-25T06:52:28.646Z,34.81
2019-02-25T06:53:28.619Z,34.80
2019-02-25T06:54:28.628Z,34.39
2019-02-25T06:55:28.597Z,34.80
2019-02-25T06:56:28.586Z,35.10
2019-02-25T06:57:28.599Z,34.81
2019-02-25T06:58:28.565Z,34.89
2019-02-25T06:59:28.553Z,34.30
2019-02-25T07:00:28.545Z,33.59
2019-02-25T07:01:28.559Z,33.80
2019-02-25T07:02:28.528Z,34.19
2019-02-25T07:03:28.507Z,32.89
2019-02-25T07:04:28.504Z,33.80
2019-02-25T07:05:28.496Z,33.80
2019-02-25T07:06:28.511Z,33.11
2019-02-25T07:07:28.484Z,33.21
2019-02-25T07:08:28.464Z,33.70
2019-02-25T07:09:28.453Z,33.81
2019-02-25T07:10:28.436Z,34.21
2019-02-25T07:11:28.426Z,34.81
2019-02-25T07:12:28.492Z,34.69
2019-02-25T07:13:28.399Z,34.59
2019-02-25T07:14:28.393Z,34.41
2019-02-25T07:15:28.381Z,34.50
2019-02-25T07:16:28.370Z,35.19
2019-02-25T07:17:28.364Z,35.31
2019-02-25T07:18:28.383Z,35.41
2019-02-25T07:19:28.346Z,35.21
2019-02-25T07:20:28.328Z,35.30
2019-02-25T07:21:28.313Z,35.41
2019-02-25T07:22:28.310Z,35.41
2019-02-25T07:23:28.311Z,35.60
2019-02-25T07:24:28.280Z,35.21
2019-02-25T07:25:28.269Z,35.41
2019-02-25T07:26:28.260Z,35.31
2019-02-25T07:27:28.273Z,35.31
2019-02-25T07:28:28.269Z,35.51
2019-02-25T07:29:28.236Z,35.31
2019-02-25T07:30:28.215Z,35.01
2019-02-25T07:31:28.333Z,34.51
2019-02-25T07:32:30.090Z,34.31
2019-02-25T07:33:28.216Z,34.39
2019-02-25T07:34:28.178Z,34.81
2019-02-25T07:35:28.171Z,34.61
2019-02-25T07:36:28.154Z,34.81
2019-02-25T07:37:28.138Z,34.81
2019-02-25T07:38:28.136Z,34.71
2019-02-25T07:39:28.139Z,34.51
2019-02-25T07:40:28.152Z,34.61
2019-02-25T07:41:28.098Z,34.61
2019-02-25T07:42:28.086Z,34.61
2019-02-25T07:43:28.075Z,34.61
2019-02-25T07:44:28.265Z,34.51
2019-02-25T07:45:28.053Z,34.71
2019-02-25T07:46:28.054Z,34.71
2019-02-25T07:47:28.040Z,34.69
2019-02-25T07:48:28.020Z,34.71
2019-02-25T07:49:28.023Z,34.81
2019-02-25T07:50:28.025Z,34.81
2019-02-25T07:51:27.987Z,34.51
2019-02-25T07:52:27.983Z,34.71
2019-02-25T07:53:27.972Z,35.11
2019-02-25T07:54:27.956Z,35.01
2019-02-25T07:55:27.966Z,35.31
2019-02-25T07:56:27.978Z,35.71
2019-02-25T07:57:27.925Z,35.30
2019-02-25T07:58:27.909Z,35.51
2019-02-25T07:59:27.912Z,35.01
2019-02-25T08:00:27.917Z,35.21
2019-02-25T08:01:27.934Z,34.99
2019-02-25T08:02:27.889Z,34.41
2019-02-25T08:03:27.859Z,34.59
2019-02-25T08:04:27.875Z,34.71
2019-02-25T08:05:27.964Z,34.81
2019-02-25T08:06:27.846Z,34.81
2019-02-25T08:07:27.836Z,34.51
2019-02-25T08:08:27.805Z,34.51
2019-02-25T08:09:27.792Z,34.71
2019-02-25T08:10:27.783Z,34.81
2019-02-25T08:11:27.812Z,34.30
2019-02-25T08:12:27.763Z,34.51
2019-02-25T08:13:27.756Z,34.41
2019-02-25T08:14:27.777Z,34.61
2019-02-25T08:15:27.742Z,34.31
2019-02-25T08:16:27.822Z,34.51
2019-02-25T08:17:27.705Z,35.31
2019-02-25T08:18:27.721Z,34.31
2019-02-25T08:19:27.685Z,34.31
2019-02-25T08:20:27.680Z,34.91
2019-02-25T08:21:27.717Z,34.41
2019-02-25T08:22:27.741Z,34.81
2019-02-25T08:23:27.681Z,34.71
2019-02-25T08:24:30.522Z,34.81
2019-02-25T08:25:27.644Z,34.81
2019-02-25T08:26:27.636Z,34.81
2019-02-25T08:27:27.651Z,34.51
2019-02-25T08:28:27.625Z,34.61
2019-02-25T08:29:27.591Z,34.81
2019-02-25T08:30:27.596Z,34.61
2019-02-25T08:31:27.593Z,35.11
2019-02-25T08:32:27.644Z,35.51
2019-02-25T08:33:27.552Z,35.61
2019-02-25T08:34:27.588Z,35.11
2019-02-25T08:35:27.515Z,35.11
2019-02-25T08:36:27.502Z,35.11
2019-02-25T08:37:27.508Z,34.31
2019-02-25T08:38:27.505Z,35.11
2019-02-25T08:39:27.489Z,35.21
2019-02-25T08:40:27.465Z,35.11
2019-02-25T08:41:27.452Z,34.41
2019-02-25T08:42:27.445Z,34.51
2019-02-25T08:43:27.449Z,35.31
2019-02-25T08:44:27.423Z,35.51
2019-02-25T08:45:27.431Z,35.41
2019-02-25T08:46:27.397Z,35.71
2019-02-25T08:47:27.399Z,35.31
2019-02-25T08:48:27.400Z,35.39
2019-02-25T08:49:27.371Z,35.49
2019-02-25T08:50:27.383Z,35.19
2019-02-25T08:51:27.366Z,34.99
2019-02-25T08:52:27.340Z,35.39
2019-02-25T08:53:27.365Z,35.49
2019-02-25T08:54:27.310Z,35.60
2019-02-25T08:55:27.299Z,35.30
2019-02-25T08:56:27.293Z,35.39
2019-02-25T08:57:27.283Z,35.39
2019-02-25T08:58:27.269Z,35.39
2019-02-25T08:59:27.276Z,35.30
2019-02-25T09:00:27.250Z,35.30
2019-02-25T09:01:27.233Z,35.39
2019-02-25T09:02:27.227Z,35.10
2019-02-25T09:03:27.234Z,35.19
2019-02-25T09:04:27.227Z,35.18
2019-02-25T09:05:27.193Z,35.38
2019-02-25T09:06:27.188Z,35.60
2019-02-25T09:07:27.172Z,35.58
2019-02-25T09:08:27.175Z,35.48
2019-02-25T09:09:27.167Z,35.49
2019-02-25T09:10:27.137Z,35.18
2019-02-25T09:11:27.124Z,35.60
2019-02-25T09:12:27.116Z,35.39
2019-02-25T09:13:27.107Z,35.49
2019-02-25T09:14:27.141Z,35.49
2019-02-25T09:15:27.603Z,35.38
2019-02-25T09:16:27.084Z,35.58
2019-02-25T09:17:27.067Z,35.38
2019-02-25T09:18:27.062Z,35.60
2019-02-25T09:19:27.042Z,35.80
2019-02-25T09:20:27.062Z,35.78
2019-02-25T09:21:31.861Z,35.30
2019-02-25T09:22:28.039Z,35.18
2019-02-25T09:23:26.996Z,35.38
2019-02-25T09:24:26.984Z,35.48
2019-02-25T09:25:27.035Z,35.39
2019-02-25T09:26:26.968Z,35.49
2019-02-25T09:27:26.959Z,34.98
2019-02-25T09:28:26.939Z,35.48
2019-02-25T09:29:26.948Z,35.39
2019-02-25T09:30:26.935Z,35.18
2019-02-25T09:31:26.936Z,36.28
2019-02-25T09:32:26.908Z,35.19
2019-02-25T09:33:26.889Z,35.88
2019-02-25T09:34:26.884Z,34.88
2019-02-25T09:35:26.908Z,35.19
2019-02-25T09:36:26.892Z,35.78
2019-02-25T09:37:26.854Z,35.38
2019-02-25T09:38:26.837Z,35.10
2019-02-25T09:39:26.823Z,35.38
2019-02-25T09:40:26.812Z,35.10
2019-02-25T09:41:29.901Z,35.38
2019-02-25T09:42:26.795Z,35.30
2019-02-25T09:43:26.785Z,35.08
2019-02-25T09:44:26.767Z,35.10
2019-02-25T09:45:26.760Z,35.48
2019-02-25T09:46:26.768Z,35.38
2019-02-25T09:47:26.739Z,35.28
2019-02-25T09:48:26.730Z,35.58
2019-02-25T09:49:26.742Z,35.28
2019-02-25T09:50:26.700Z,35.28
2019-02-25T09:51:26.734Z,35.38
2019-02-25T09:52:26.680Z,35.48
2019-02-25T09:53:26.692Z,35.38
2019-02-25T09:54:26.668Z,35.38
2019-02-25T09:55:26.663Z,35.48
2019-02-25T09:56:26.637Z,35.48
2019-02-25T09:57:26.660Z,35.58
2019-02-25T09:58:26.615Z,35.28
2019-02-25T09:59:26.609Z,35.38
2019-02-25T10:00:26.591Z,34.98
2019-02-25T10:01:26.594Z,35.38
2019-02-25T10:02:26.624Z,35.38
2019-02-25T10:03:26.566Z,36.18
2019-02-25T10:04:26.554Z,36.10
2019-02-25T10:05:26.578Z,35.28
2019-02-25T10:06:26.530Z,35.38
2019-02-25T10:07:26.516Z,35.38
2019-02-25T10:08:26.527Z,36.19
2019-02-25T10:09:29.860Z,35.28
2019-02-25T10:10:26.481Z,36.18
2019-02-25T10:11:26.471Z,35.48
2019-02-25T10:12:26.464Z,35.78
2019-02-25T10:13:26.473Z,34.98
2019-02-25T10:14:26.447Z,35.48
2019-02-25T10:15:26.436Z,35.19
2019-02-25T10:16:26.475Z,35.38
2019-02-25T10:17:26.412Z,35.48
2019-02-25T10:18:26.422Z,35.38
2019-02-25T10:19:26.397Z,35.28
2019-02-25T10:20:26.380Z,35.38
2019-02-25T10:21:26.369Z,35.38
2019-02-25T10:22:26.398Z,35.48
2019-02-25T10:23:26.365Z,35.58
2019-02-25T10:24:26.331Z,35.48
2019-02-25T10:25:26.318Z,35.68
2019-02-25T10:26:26.332Z,35.38
2019-02-25T10:27:26.300Z,35.10
2019-02-25T10:28:26.309Z,35.58
2019-02-25T10:29:26.281Z,35.48
2019-02-25T10:30:26.271Z,35.48
2019-02-25T10:31:26.258Z,35.48
2019-02-25T10:32:27.952Z,35.28
2019-02-25T10:33:26.261Z,35.38
2019-02-25T10:34:26.239Z,35.18
2019-02-25T10:35:27.204Z,35.48
2019-02-25T10:36:26.203Z,34.78
2019-02-25T10:37:26.198Z,35.38
2019-02-25T10:38:26.238Z,35.18
2019-02-25T10:39:26.166Z,35.38
2019-02-25T10:40:27.529Z,35.38
2019-02-25T10:41:27.754Z,35.38
2019-02-25T10:42:27.600Z,35.58
2019-02-25T10:43:27.666Z,35.38
2019-02-25T10:44:26.158Z,35.38
2019-02-25T10:45:26.123Z,35.38
2019-02-25T10:46:26.092Z,35.18
2019-02-25T10:47:26.084Z,35.28
2019-02-25T10:48:26.079Z,35.28
2019-02-25T10:49:26.833Z,35.28
2019-02-25T10:50:26.056Z,34.48
2019-02-25T10:51:26.045Z,34.38
2019-02-25T10:52:26.028Z,34.38
2019-02-25T10:53:26.032Z,34.58
2019-02-25T10:54:26.028Z,34.58
2019-02-25T10:55:26.011Z,34.38
2019-02-25T10:56:26.060Z,35.38
2019-02-25T10:57:27.189Z,34.98
2019-02-25T10:58:26.975Z,34.28
2019-02-25T10:59:25.967Z,34.58
2019-02-25T11:00:25.968Z,34.28
2019-02-25T11:01:25.929Z,34.28
2019-02-25T11:02:25.938Z,35.08
2019-02-25T11:03:25.909Z,35.08
2019-02-25T11:04:26.270Z,35.08
2019-02-25T11:05:27.852Z,35.28
2019-02-25T11:06:27.338Z,35.18
2019-02-25T11:07:25.867Z,35.08
2019-02-25T11:08:25.851Z,34.28
2019-02-25T11:09:25.908Z,35.08
2019-02-25T11:10:25.839Z,35.38
2019-02-25T11:11:27.205Z,35.08
2019-02-25T11:12:27.787Z,35.08
2019-02-25T11:13:27.444Z,35.38
2019-02-25T11:14:25.798Z,35.08
2019-02-25T11:15:25.782Z,35.28
2019-02-25T11:16:25.788Z,34.48
2019-02-25T11:17:25.765Z,35.58
2019-02-25T11:18:27.921Z,35.38
2019-02-25T11:19:27.011Z,35.48
2019-02-25T11:20:27.213Z,35.08
2019-02-25T11:21:25.727Z,35.28
2019-02-25T11:22:25.704Z,35.28
2019-02-25T11:23:25.687Z,35.58
2019-02-25T11:24:25.676Z,35.38
2019-02-25T11:25:26.361Z,35.58
2019-02-25T11:26:26.646Z,35.38
2019-02-25T11:27:25.665Z,35.48
2019-02-25T11:28:26.158Z,35.48
2019-02-25T11:29:25.652Z,35.38
2019-02-25T11:30:25.615Z,35.38
2019-02-25T11:31:28.535Z,35.18
2019-02-25T11:32:26.419Z,35.18
2019-02-25T11:33:27.490Z,35.18
2019-02-25T11:34:25.579Z,35.48
2019-02-25T11:35:25.553Z,35.58
2019-02-25T11:36:25.580Z,35.28
2019-02-25T11:37:27.069Z,35.28
2019-02-25T11:38:26.095Z,34.98
2019-02-25T11:39:27.470Z,35.48
2019-02-25T11:40:26.046Z,35.48
2019-02-25T11:41:25.485Z,35.58
2019-02-25T11:42:25.515Z,35.48
2019-02-25T11:43:25.471Z,35.69
2019-02-25T11:44:26.161Z,35.68
2019-02-25T11:45:25.454Z,35.38
2019-02-25T11:46:25.440Z,35.68
2019-02-25T11:47:25.443Z,35.39
2019-02-25T11:48:25.422Z,35.08
2019-02-25T11:49:25.405Z,34.99
2019-02-25T11:50:25.391Z,35.38
2019-02-25T11:51:27.212Z,35.49
2019-02-25T11:52:25.425Z,36.28
2019-02-25T11:53:25.368Z,35.19
2019-02-25T11:54:25.364Z,34.98
2019-02-25T11:55:25.338Z,35.30
2019-02-25T11:56:25.325Z,34.98
2019-02-25T11:57:25.334Z,35.28
2019-02-25T11:58:25.306Z,35.49
2019-02-25T11:59:25.293Z,34.99
2019-02-25T12:00:25.286Z,35.38
2019-02-25T12:01:25.292Z,34.89
2019-02-25T12:02:26.124Z,35.99
2019-02-25T12:03:25.249Z,36.18
2019-02-25T12:04:25.239Z,35.19
2019-02-25T12:05:25.234Z,35.38
2019-02-25T12:06:25.261Z,36.08
2019-02-25T12:07:25.259Z,35.89
2019-02-25T12:08:25.213Z,35.49
2019-02-25T12:09:25.193Z,36.29
2019-02-25T12:10:25.178Z,35.19
2019-02-25T12:11:25.163Z,36.18
2019-02-25T12:12:25.154Z,35.48
2019-02-25T12:13:25.172Z,35.39
2019-02-25T12:14:25.137Z,35.38
2019-02-25T12:15:25.124Z,35.60
2019-02-25T12:16:25.112Z,35.48
2019-02-25T12:17:25.097Z,35.60
2019-02-25T12:18:25.115Z,35.10
2019-02-25T12:19:25.076Z,35.10
2019-02-25T12:20:25.064Z,35.28
2019-02-25T12:21:25.057Z,35.60
2019-02-25T12:22:25.051Z,35.10
2019-02-25T12:23:25.061Z,34.39
2019-02-25T12:24:25.041Z,34.68
2019-02-25T12:25:25.011Z,34.59
2019-02-25T12:26:25.003Z,34.58
2019-02-25T12:27:24.993Z,34.88
2019-02-25T12:28:25.013Z,34.88
2019-02-25T12:29:24.990Z,34.48
2019-02-25T12:30:24.989Z,34.58
2019-02-25T12:31:24.943Z,34.58
2019-02-25T12:32:24.937Z,34.88
2019-02-25T12:33:24.959Z,34.58
2019-02-25T12:34:24.946Z,34.28
2019-02-25T12:35:24.913Z,34.28
2019-02-25T12:36:24.903Z,34.28
2019-02-25T12:37:24.898Z,33.98
2019-02-25T12:38:24.869Z,33.88
2019-02-25T12:39:24.882Z,34.38
2019-02-25T12:40:24.848Z,34.38
2019-02-25T12:41:24.842Z,34.48
2019-02-25T12:42:24.834Z,34.58
2019-02-25T12:43:24.819Z,34.88
2019-02-25T12:44:24.821Z,34.48
2019-02-25T12:45:24.815Z,34.28
2019-02-25T12:46:24.782Z,34.48
2019-02-25T12:47:24.774Z,34.58
2019-02-25T12:48:24.765Z,34.78
2019-02-25T12:49:24.781Z,34.18
2019-02-25T12:50:24.735Z,34.46
2019-02-25T12:51:24.720Z,35.08
2019-02-25T12:52:24.710Z,35.08